Time;durP1;ratioP1;P1;durP2;ratioP2;P2;SDS_P1;SDS_P2;PMS_P1;PMS_P2;Temp;Humidity;BMP_temperature;BMP_pressure;BME280_temperature;BME280_humidity;BME280_pressure;Samples;Min_cycle;Max_cycle;Signal;HPM_P1;HPM_P2
2022/04/11 00:01:57;;;;;;;25.25;16.08;;;;;;;5.19;69.07;101903.38;4996426;28;20029;-78
2022/04/11 00:04:22;;;;;;;25.73;16.15;;;;;;;5.19;69.11;101905.06;5001109;28;20021;-78
2022/04/11 00:06:48;;;;;;;26.25;16.50;;;;;;;5.17;69.49;101901.50;5005183;28;20037;-78
2022/04/11 00:09:13;;;;;;;26.17;16.40;;;;;;;5.13;69.88;101891.78;4994370;28;20093;-78
2022/04/11 00:11:38;;;;;;;26.60;16.35;;;;;;;5.11;69.52;101890.78;4999689;28;20006;-78
2022/04/11 00:14:04;;;;;;;23.95;16.35;;;;;;;5.09;69.87;101888.09;4995481;28;20023;-78
2022/04/11 00:16:30;;;;;;;25.80;16.48;;;;;;;5.09;69.93;101894.97;4998326;28;20015;-78
2022/04/11 00:18:55;;;;;;;26.60;16.90;;;;;;;5.08;69.85;101886.31;5003807;28;20049;-78
2022/04/11 00:21:21;;;;;;;24.50;16.50;;;;;;;5.07;69.75;101889.72;5003517;28;20045;-78
2022/04/11 00:23:46;;;;;;;24.45;16.35;;;;;;;5.05;69.80;101887.03;4994743;28;20257;-77
2022/04/11 00:26:11;;;;;;;23.60;16.10;;;;;;;5.05;69.87;101887.03;4994978;28;20184;-78
2022/04/11 00:28:36;;;;;;;27.08;16.55;;;;;;;5.04;69.89;101881.78;5001658;28;20026;-77
2022/04/11 00:31:02;;;;;;;25.00;17.13;;;;;;;5.02;69.67;101880.75;5004469;28;20527;-78
2022/04/11 00:33:27;;;;;;;27.20;16.45;;;;;;;5.03;70.17;101875.69;4997656;28;20028;-78
2022/04/11 00:35:53;;;;;;;26.48;16.48;;;;;;;5.01;70.12;101869.56;4997154;28;20277;-78
2022/04/11 00:38:18;;;;;;;24.48;16.00;;;;;;;5.00;70.73;101874.63;4996913;28;20427;-78
2022/04/11 00:40:44;;;;;;;27.77;16.45;;;;;;;5.00;70.39;101874.63;4997809;28;20018;-78
2022/04/11 00:43:09;;;;;;;24.45;16.60;;;;;;;4.99;70.27;101865.97;4999879;28;20042;-77
2022/04/11 00:45:34;;;;;;;22.90;15.68;;;;;;;4.99;69.99;101865.97;4997889;28;20192;-78
2022/04/11 00:48:00;;;;;;;25.75;15.65;;;;;;;4.98;70.25;101864.19;4995663;28;20018;-78
2022/04/11 00:50:25;;;;;;;26.40;17.08;;;;;;;4.98;70.91;101856.44;4997055;28;20030;-78
2022/04/11 00:52:53;;;;;;;24.13;15.95;;;;;;;4.99;70.44;101853.03;5001984;28;20187;-78
2022/04/11 00:55:21;;;;;;;23.80;15.43;;;;;;;4.99;70.02;101850.47;4994650;28;20025;-78
2022/04/11 00:57:47;;;;;;;23.92;15.60;;;;;;;5.00;70.09;101852.25;4999627;28;20068;-78
2022/04/11 01:00:13;;;;;;;22.92;15.55;;;;;;;5.04;70.22;101843.03;5002113;28;20034;-78
2022/04/11 01:02:39;;;;;;;22.75;16.05;;;;;;;5.03;70.25;101847.28;4996635;28;20101;-78
2022/04/11 01:05:09;;;;;;;24.70;16.63;;;;;;;5.02;70.08;101844.59;4991843;28;20030;-78
2022/04/11 01:07:37;;;;;;;26.85;16.40;;;;;;;5.01;70.17;101854.06;5001027;28;20021;-78
2022/04/11 01:10:04;;;;;;;23.52;15.68;;;;;;;5.03;70.09;101849.84;5002265;28;20122;-78
2022/04/11 01:12:30;;;;;;;23.60;15.30;;;;;;;5.01;70.06;101842.81;4996732;28;20026;-78
2022/04/11 01:14:55;;;;;;;27.15;16.48;;;;;;;5.02;69.98;101842.91;4995547;28;20054;-78
2022/04/11 01:17:31;;;;;;;26.10;16.45;;;;;;;5.02;70.26;101837.72;5000549;28;20091;-78
2022/04/11 01:19:56;;;;;;;26.95;16.42;;;;;;;5.01;69.57;101841.13;4989912;28;20034;-78
2022/04/11 01:22:21;;;;;;;22.42;15.65;;;;;;;5.00;69.68;101836.75;4999257;28;20014;-78
2022/04/11 01:24:47;;;;;;;21.45;15.57;;;;;;;5.00;69.86;101834.19;4990963;28;20165;-78
2022/04/11 01:27:13;;;;;;;25.80;16.15;;;;;;;4.97;69.83;101831.41;4999048;28;20022;-76
2022/04/11 01:29:38;;;;;;;25.35;16.45;;;;;;;4.97;69.57;101836.56;5002675;28;20081;-76
2022/04/11 01:32:04;;;;;;;22.13;15.70;;;;;;;4.96;69.40;101839.06;5000425;28;20022;-76
2022/04/11 01:34:30;;;;;;;24.70;15.90;;;;;;;4.96;69.56;101834.78;4994586;28;20236;-76
2022/04/11 01:36:55;;;;;;;21.63;15.00;;;;;;;4.97;69.43;101846.91;4990796;28;20268;-75
2022/04/11 01:39:20;;;;;;;25.80;15.50;;;;;;;4.96;69.46;101839.94;4996120;28;20022;-76
2022/04/11 01:41:45;;;;;;;23.60;15.98;;;;;;;4.96;69.68;101839.06;5002654;28;20023;-76
2022/04/11 01:44:11;;;;;;;21.77;15.32;;;;;;;4.96;69.92;101833.91;4997815;28;20026;-76
2022/04/11 01:46:36;;;;;;;23.58;16.33;;;;;;;4.97;69.32;101838.28;4996904;28;20090;-76
2022/04/11 01:49:01;;;;;;;24.88;16.05;;;;;;;4.97;69.70;101841.75;5004711;28;20042;-76
2022/04/11 01:51:26;;;;;;;26.73;16.13;;;;;;;4.99;68.95;101837.53;5003114;28;20017;-76
2022/04/11 01:53:52;;;;;;;25.63;17.02;;;;;;;5.02;69.83;101835.16;5004201;28;20018;-76
2022/04/11 01:56:17;;;;;;;24.15;15.68;;;;;;;5.02;69.83;101839.44;5001141;28;20256;-76
2022/04/11 01:58:42;;;;;;;26.80;15.77;;;;;;;5.02;70.32;101837.72;4995370;28;20194;-76
2022/04/11 02:01:08;;;;;;;24.92;16.25;;;;;;;5.03;70.52;101833.47;4995848;28;20006;-76
2022/04/11 02:03:33;;;;;;;23.35;15.93;;;;;;;5.03;70.69;101830.91;4995893;28;20154;-76
2022/04/11 02:05:58;;;;;;;24.38;16.27;;;;;;;5.00;69.88;101823.84;5000842;28;20283;-76
2022/04/11 02:08:24;;;;;;;23.92;16.38;;;;;;;5.00;70.19;101828.13;4990846;28;20034;-75
2022/04/11 02:10:50;;;;;;;23.98;17.05;;;;;;;4.99;69.88;101829.81;5001320;28;20018;-75
2022/04/11 02:13:15;;;;;;;22.33;15.77;;;;;;;4.99;69.63;101826.34;4998353;28;20100;-75
2022/04/11 02:15:40;;;;;;;22.58;15.18;;;;;;;4.95;69.91;101827.81;5001442;28;20014;-75
2022/04/11 02:18:06;;;;;;;23.95;15.98;;;;;;;4.93;69.11;101826.84;4990366;28;20050;-75
2022/04/11 02:20:31;;;;;;;26.08;15.85;;;;;;;4.90;69.33;101828.34;4999685;28;20062;-75
2022/04/11 02:22:58;;;;;;;22.92;15.68;;;;;;;4.88;69.25;101823.06;4994377;28;20046;-75
2022/04/11 02:25:29;;;;;;;24.23;15.63;;;;;;;4.81;69.69;101824.41;4999080;28;20033;-75
2022/04/11 02:27:55;;;;;;;23.70;16.08;;;;;;;4.76;69.48;101824.91;4995602;28;20038;-75
2022/04/11 02:30:22;;;;;;;22.17;15.55;;;;;;;4.73;69.25;101820.44;4997346;28;20257;-75
2022/04/11 02:32:48;;;;;;;24.27;16.10;;;;;;;4.70;69.54;101836.59;5001821;28;20268;-75
2022/04/11 02:35:14;;;;;;;22.85;16.67;;;;;;;4.66;69.26;101832.06;4995036;28;20022;-75
2022/04/11 02:37:39;;;;;;;26.73;16.60;;;;;;;4.63;69.72;101830.97;4997266;28;20030;-75
2022/04/11 02:40:05;;;;;;;24.40;15.63;;;;;;;4.59;69.84;101832.47;4994109;28;20208;-75
2022/04/11 02:42:31;;;;;;;27.00;16.58;;;;;;;4.54;69.56;101831.28;4993274;28;20054;-75
2022/04/11 02:44:56;;;;;;;24.40;16.08;;;;;;;4.50;69.79;101832.78;4988753;28;20217;-75
2022/04/11 02:47:22;;;;;;;23.75;16.15;;;;;;;4.46;69.86;101827.31;4993862;28;20014;-75
2022/04/11 02:49:47;;;;;;;23.42;16.80;;;;;;;4.42;70.05;101828.81;4998066;28;20283;-75
2022/04/11 02:52:14;;;;;;;25.80;16.80;;;;;;;4.42;70.14;101831.38;4991277;28;20038;-75
2022/04/11 02:54:40;;;;;;;23.98;17.02;;;;;;;4.39;70.47;101828.63;4989677;28;20090;-75
2022/04/11 02:57:05;;;;;;;24.17;16.55;;;;;;;4.35;70.36;101830.09;4994236;28;20011;-77
2022/04/11 02:59:32;;;;;;;25.55;16.52;;;;;;;4.35;70.37;101829.22;4999702;28;20065;-78
2022/04/11 03:01:58;;;;;;;23.30;16.55;;;;;;;4.30;70.32;101825.41;4998730;28;20034;-78
2022/04/11 03:04:23;;;;;;;26.58;16.83;;;;;;;4.24;70.43;101818.16;5000700;28;20053;-78
2022/04/11 03:06:48;;;;;;;27.67;16.70;;;;;;;4.23;70.22;101820.66;4995611;28;20070;-78
2022/04/11 03:09:14;;;;;;;23.30;15.93;;;;;;;4.21;70.32;101817.97;4997247;28;20022;-78
2022/04/11 03:11:39;;;;;;;25.00;16.77;;;;;;;4.19;70.66;101819.56;4996242;28;20033;-78
2022/04/11 03:14:04;;;;;;;25.00;16.55;;;;;;;4.17;70.54;101822.06;4996787;28;20172;-78
2022/04/11 03:16:31;;;;;;;25.40;16.70;;;;;;;4.14;70.68;101810.63;4995164;28;20026;-78
2022/04/11 03:18:57;;;;;;;26.08;17.10;;;;;;;4.10;70.83;101813.78;4993447;28;20030;-78
2022/04/11 03:21:22;;;;;;;23.10;16.38;;;;;;;4.10;70.57;101818.97;4999905;28;20072;-78
2022/04/11 03:23:48;;;;;;;24.25;16.40;;;;;;;4.04;70.52;101811.75;4995649;28;20177;-78
2022/04/11 03:26:13;;;;;;;26.30;16.30;;;;;;;4.00;70.52;101817.47;5006063;28;20102;-78
2022/04/11 03:28:38;;;;;;;22.90;16.05;;;;;;;3.98;70.97;101819.97;5000339;28;20034;-78
2022/04/11 03:31:04;;;;;;;25.00;16.27;;;;;;;3.94;70.55;101819.63;4998147;28;20029;-77
2022/04/11 03:33:29;;;;;;;26.42;16.58;;;;;;;3.87;70.68;101826.09;5004658;28;20034;-78
2022/04/11 03:35:54;;;;;;;23.10;15.75;;;;;;;3.85;70.77;101825.06;4998795;28;20026;-78
2022/04/11 03:38:20;;;;;;;20.98;15.27;;;;;;;3.83;70.92;101821.50;4992652;28;20233;-78
2022/04/11 03:40:45;;;;;;;22.23;15.63;;;;;;;3.78;70.44;101815.16;4997476;28;20033;-78
2022/04/11 03:43:11;;;;;;;25.50;15.98;;;;;;;3.75;70.83;101821.00;5000193;28;20267;-78
2022/04/11 03:45:36;;;;;;;24.17;16.08;;;;;;;3.71;71.26;101818.09;5000403;28;20090;-78
2022/04/11 03:48:01;;;;;;;21.50;15.43;;;;;;;3.68;70.92;101815.31;5000971;28;20041;-78
2022/04/11 03:50:26;;;;;;;23.30;15.73;;;;;;;3.64;71.14;101819.41;5000906;28;20082;-78
2022/04/11 03:52:52;;;;;;;24.60;16.13;;;;;;;3.60;70.70;101823.44;4997182;28;20010;-77
2022/04/11 03:55:17;;;;;;;21.80;15.15;;;;;;;3.58;71.03;101817.28;5002627;28;20018;-77
2022/04/11 03:57:42;;;;;;;21.58;15.38;;;;;;;3.57;71.13;101824.94;4997032;28;20014;-77
2022/04/11 04:00:08;;;;;;;21.33;15.30;;;;;;;3.56;71.56;101828.28;5003052;28;20024;-78
2022/04/11 04:02:34;;;;;;;22.25;14.80;;;;;;;3.48;71.58;101827.78;5001129;28;20110;-78
2022/04/11 04:04:59;;;;;;;23.15;14.68;;;;;;;3.47;71.72;101818.25;5004379;28;20037;-78
2022/04/11 04:07:25;;;;;;;21.33;15.02;;;;;;;3.47;71.79;101820.81;5005821;28;20290;-78
2022/04/11 04:09:50;;;;;;;25.08;14.95;;;;;;;3.47;72.14;101820.81;5005393;28;20030;-78
2022/04/11 04:12:20;;;;;;;23.83;15.45;;;;;;;3.46;72.34;101824.19;5003133;28;20033;-78
2022/04/11 04:14:46;;;;;;;22.63;14.90;;;;;;;3.45;71.69;101819.84;4998381;28;20081;-78
2022/04/11 04:17:11;;;;;;;21.42;15.13;;;;;;;3.41;71.76;101817.84;5003699;28;20150;-78
2022/04/11 04:19:37;;;;;;;21.42;14.85;;;;;;;3.37;72.03;101815.84;5004208;28;20030;-78
2022/04/11 04:22:04;;;;;;;23.38;15.15;;;;;;;3.31;72.27;101814.59;5005215;28;20069;-78
2022/04/11 04:24:31;;;;;;;21.38;14.55;;;;;;;3.29;72.50;101812.75;5004806;28;20022;-78
2022/04/11 04:26:57;;;;;;;20.25;14.70;;;;;;;3.25;72.81;101803.91;5004059;28;20026;-78
2022/04/11 04:29:22;;;;;;;22.13;14.30;;;;;;;3.22;72.79;101808.84;4996372;28;20086;-78
2022/04/11 04:31:49;;;;;;;22.70;14.82;;;;;;;3.19;72.34;101806.06;4999802;28;20069;-78
2022/04/11 04:34:15;;;;;;;23.67;13.80;;;;;;;3.15;73.04;101804.06;4998541;28;20570;-78
2022/04/11 04:36:40;;;;;;;23.42;15.07;;;;;;;3.11;72.74;101802.03;5000437;28;20042;-78
2022/04/11 04:39:05;;;;;;;24.27;14.98;;;;;;;3.10;72.64;101807.97;4997062;28;20046;-78
2022/04/11 04:41:31;;;;;;;24.45;14.80;;;;;;;3.09;73.08;101803.63;5004134;28;20085;-78
2022/04/11 04:43:56;;;;;;;23.27;14.35;;;;;;;3.06;73.62;101803.44;5005393;28;20022;-78
2022/04/11 04:46:21;;;;;;;21.75;14.38;;;;;;;3.02;73.45;101798.84;5003382;28;20022;-78
2022/04/11 04:48:47;;;;;;;21.52;14.48;;;;;;;3.03;73.21;101800.66;5001399;28;20049;-78
2022/04/11 04:51:12;;;;;;;20.55;14.20;;;;;;;2.99;73.52;101802.09;4998450;28;20037;-78
2022/04/11 04:53:37;;;;;;;21.52;14.75;;;;;;;3.01;73.82;101795.34;5000297;28;20085;-78
2022/04/11 04:56:03;;;;;;;21.95;14.80;;;;;;;2.98;73.67;101796.84;4995446;28;20042;-78
2022/04/11 04:58:28;;;;;;;23.40;14.90;;;;;;;2.94;73.71;101796.63;5000040;28;20218;-78
2022/04/11 05:00:53;;;;;;;24.08;14.25;;;;;;;2.93;73.62;101797.41;4997568;28;20022;-78
2022/04/11 05:03:19;;;;;;;20.15;13.93;;;;;;;2.90;73.92;101794.63;5000861;28;20030;-78
2022/04/11 05:05:44;;;;;;;19.10;13.45;;;;;;;2.88;73.92;101790.16;5001760;28;20159;-78
2022/04/11 05:08:09;;;;;;;23.63;14.32;;;;;;;2.89;73.69;101789.38;5003085;28;20165;-75
2022/04/11 05:10:34;;;;;;;22.42;14.35;;;;;;;2.91;73.85;101790.34;4996661;28;20026;-75
2022/04/11 05:13:00;;;;;;;22.95;14.60;;;;;;;2.91;74.14;101791.28;5002091;28;20029;-75
2022/04/11 05:15:25;;;;;;;22.85;14.10;;;;;;;2.91;74.49;101795.50;5000248;28;20324;-75
2022/04/11 05:17:50;;;;;;;21.67;14.45;;;;;;;2.92;74.39;101787.00;5000453;28;20158;-75
2022/04/11 05:20:16;;;;;;;23.70;14.43;;;;;;;2.91;74.68;101786.13;5004141;28;20281;-75
2022/04/11 05:22:41;;;;;;;20.92;13.75;;;;;;;2.93;74.76;101787.13;5003255;28;20041;-75
2022/04/11 05:25:07;;;;;;;21.52;13.98;;;;;;;2.99;75.05;101785.75;5004160;28;20022;-75
2022/04/11 05:27:33;;;;;;;24.67;13.85;;;;;;;3.04;75.11;101792.09;4996996;28;20025;-75
2022/04/11 05:29:58;;;;;;;22.08;14.63;;;;;;;3.07;74.59;101787.16;5003989;28;20292;-75
2022/04/11 05:32:23;;;;;;;22.45;14.00;;;;;;;3.08;75.34;101781.25;4998301;28;20089;-75
2022/04/11 05:34:49;;;;;;;22.55;13.95;;;;;;;3.10;75.18;101790.88;5004319;28;20261;-76
2022/04/11 05:37:14;;;;;;;20.40;14.18;;;;;;;3.15;74.88;101783.44;5002979;28;20025;-75
2022/04/11 05:39:40;;;;;;;25.30;14.27;;;;;;;3.20;75.58;101788.91;5003629;28;20040;-75
2022/04/11 05:42:06;;;;;;;21.50;13.90;;;;;;;3.22;75.15;101801.09;5002070;28;20033;-75
2022/04/11 05:44:31;;;;;;;21.75;13.57;;;;;;;3.26;75.11;101792.81;5001609;28;20022;-75
2022/04/11 05:46:56;;;;;;;21.00;14.35;;;;;;;3.30;74.92;101794.81;5004744;28;20141;-75
2022/04/11 05:49:22;;;;;;;22.63;14.00;;;;;;;3.34;74.70;101795.91;5004215;28;20172;-75
2022/04/11 05:51:48;;;;;;;26.52;14.73;;;;;;;3.38;75.34;101789.28;5003112;28;20026;-75
2022/04/11 05:54:14;;;;;;;22.60;14.35;;;;;;;3.44;75.06;101789.69;5001243;28;20064;-75
2022/04/11 05:56:39;;;;;;;24.17;15.13;;;;;;;3.51;74.43;101793.59;4996522;28;20032;-75
2022/04/11 05:59:05;;;;;;;24.80;14.90;;;;;;;3.56;74.53;101790.50;5002064;28;20128;-75
2022/04/11 06:01:31;;;;;;;22.48;14.40;;;;;;;3.63;74.19;101794.41;5002946;28;20030;-75
2022/04/11 06:03:56;;;;;;;24.42;14.70;;;;;;;3.70;74.46;101788.00;4997925;28;20030;-75
2022/04/11 06:06:21;;;;;;;23.58;14.38;;;;;;;3.75;74.57;101787.50;5003965;28;20126;-77
2022/04/11 06:08:47;;;;;;;21.45;14.30;;;;;;;3.83;74.47;101788.00;5002678;28;20154;-78
2022/04/11 06:11:13;;;;;;;22.17;14.52;;;;;;;3.89;74.12;101779.78;5004521;28;20077;-78
2022/04/11 06:13:43;;;;;;;23.08;15.48;;;;;;;3.97;74.01;101787.22;5003409;28;20081;-78
2022/04/11 06:16:08;;;;;;;23.00;14.18;;;;;;;4.05;74.30;101779.09;5004087;28;20022;-78
2022/04/11 06:18:33;;;;;;;21.88;14.57;;;;;;;4.12;74.11;101786.44;4998922;28;20279;-77
2022/04/11 06:20:59;;;;;;;20.92;13.43;;;;;;;4.20;73.65;101790.41;5003957;28;20038;-78
2022/04/11 06:23:24;;;;;;;19.33;13.23;;;;;;;4.29;72.94;101785.84;5002472;28;20042;-78
2022/04/11 06:25:49;;;;;;;20.52;13.93;;;;;;;4.40;73.41;101780.47;5004135;28;20018;-77
2022/04/11 06:28:15;;;;;;;22.27;13.73;;;;;;;4.51;73.19;101789.78;5002788;28;20383;-78
2022/04/11 06:30:40;;;;;;;21.88;14.10;;;;;;;4.62;72.48;101791.38;4997957;28;20030;-78
2022/04/11 06:33:05;;;;;;;23.02;13.52;;;;;;;4.73;72.10;101784.28;5002498;28;20229;-77
2022/04/11 06:35:31;;;;;;;24.52;13.90;;;;;;;4.87;71.60;101777.41;5002168;28;20106;-77
2022/04/11 06:37:56;;;;;;;21.60;13.27;;;;;;;5.00;71.85;101779.06;5002465;28;20030;-75
2022/04/11 06:40:21;;;;;;;20.75;14.13;;;;;;;5.15;70.46;101784.25;5003279;28;20260;-75
2022/04/11 06:42:46;;;;;;;24.50;13.85;;;;;;;5.28;69.87;101786.78;5003457;28;20034;-75
2022/04/11 06:45:14;;;;;;;20.23;12.57;;;;;;;5.42;70.18;101781.53;5003420;28;20125;-75
2022/04/11 06:47:39;;;;;;;21.92;13.27;;;;;;;5.66;69.38;101785.59;5000509;28;20007;-75
2022/04/11 06:50:05;;;;;;;20.05;12.63;;;;;;;7.32;65.48;101787.81;5001371;28;20065;-75
2022/04/11 06:52:30;;;;;;;18.35;12.55;;;;;;;10.48;56.26;101779.63;4997022;28;20168;-75
2022/04/11 06:54:56;;;;;;;16.92;11.18;;;;;;;13.47;49.04;101780.75;5006911;28;20026;-75
2022/04/11 06:57:23;;;;;;;17.77;12.10;;;;;;;15.93;42.33;101787.91;5006586;28;20030;-76
2022/04/11 06:59:49;;;;;;;15.10;11.63;;;;;;;17.87;36.92;101780.66;5005942;28;20097;-76
2022/04/11 07:02:14;;;;;;;19.48;11.45;;;;;;;19.14;34.32;101781.47;5005945;28;20165;-76
2022/04/11 07:04:39;;;;;;;17.05;11.68;;;;;;;20.04;32.12;101785.13;5006960;28;20189;-76
2022/04/11 07:07:04;;;;;;;19.27;12.68;;;;;;;19.19;32.08;101788.53;5006730;28;20108;-76
2022/04/11 07:09:31;;;;;;;21.73;12.93;;;;;;;17.27;35.09;101788.00;5005716;28;20026;-76
2022/04/11 07:11:56;;;;;;;22.25;14.57;;;;;;;15.48;38.65;101784.47;5005686;28;20292;-76
2022/04/11 07:14:22;;;;;;;24.73;14.93;;;;;;;14.05;42.04;101779.63;5002408;28;20026;-76
2022/04/11 07:16:48;;;;;;;23.50;14.77;;;;;;;12.92;45.73;101780.97;5006537;28;20155;-76
2022/04/11 07:19:14;;;;;;;26.98;16.52;;;;;;;12.00;46.77;101768.56;5005919;28;20378;-76
2022/04/11 07:21:39;;;;;;;26.65;16.38;;;;;;;11.28;48.55;101777.38;5006458;28;20030;-76
2022/04/11 07:24:05;;;;;;;26.58;17.05;;;;;;;10.73;51.41;101768.41;5006418;28;20069;-76
2022/04/11 07:26:30;;;;;;;30.42;17.30;;;;;;;10.36;52.71;101769.63;5006047;28;20037;-76
2022/04/11 07:28:55;;;;;;;27.88;17.08;;;;;;;10.05;53.56;101764.06;5005548;28;20029;-76
2022/04/11 07:31:21;;;;;;;28.38;16.73;;;;;;;9.82;53.90;101765.72;5005276;28;20112;-76
2022/04/11 07:33:47;;;;;;;29.27;15.25;;;;;;;9.64;54.27;101770.13;5005282;28;20027;-76
2022/04/11 07:36:13;;;;;;;27.85;15.63;;;;;;;9.48;54.28;101769.47;5003834;28;20277;-77
2022/04/11 07:38:38;;;;;;;29.90;16.63;;;;;;;9.38;56.35;101762.09;5006443;28;20033;-78
2022/04/11 07:41:03;;;;;;;29.20;17.20;;;;;;;9.33;57.44;101766.22;5007409;28;20025;-78
2022/04/11 07:43:29;;;;;;;28.20;16.02;;;;;;;9.25;57.13;101759.78;5006351;28;20177;-78
2022/04/11 07:45:54;;;;;;;25.38;15.55;;;;;;;9.22;59.35;101753.66;5006111;28;20085;-78
2022/04/11 07:48:19;;;;;;;29.20;15.13;;;;;;;9.21;56.86;101757.06;5006090;28;20026;-78
2022/04/11 07:50:45;;;;;;;26.35;14.77;;;;;;;9.17;55.96;101755.16;5000295;28;20082;-78
2022/04/11 07:53:10;;;;;;;27.15;15.27;;;;;;;9.15;57.45;101749.00;5004667;28;20018;-78
2022/04/11 07:55:35;;;;;;;29.92;15.40;;;;;;;9.18;58.06;101754.34;5001613;28;20110;-78
2022/04/11 07:58:01;;;;;;;26.85;16.08;;;;;;;9.22;57.94;101750.13;5004833;28;20039;-78
2022/04/11 08:00:26;;;;;;;25.73;14.60;;;;;;;9.27;56.99;101750.34;5005199;28;20036;-78
2022/04/11 08:02:56;;;;;;;23.50;13.32;;;;;;;9.29;55.67;101746.97;5002168;28;20253;-78
2022/04/11 08:05:22;;;;;;;25.60;13.43;;;;;;;9.32;57.73;101739.31;5003376;28;20050;-78
2022/04/11 08:07:49;;;;;;;22.25;13.10;;;;;;;9.36;55.40;101748.16;5005512;28;20092;-78
2022/04/11 08:10:16;;;;;;;25.48;14.00;;;;;;;9.37;56.50;101742.09;5005521;28;20040;-78
2022/04/11 08:12:59;;;;;;;25.17;13.70;;;;;;;9.41;56.31;101725.81;5004461;28;20011;-78
2022/04/11 08:15:26;;;;;;;23.52;13.43;;;;;;;9.45;56.69;101727.72;4997697;28;20228;-78
2022/04/11 08:17:53;;;;;;;22.52;13.60;;;;;;;9.51;57.78;101722.78;5003503;28;20022;-78
2022/04/11 08:20:19;;;;;;;24.27;12.88;;;;;;;9.58;57.29;101730.00;5004245;28;20038;-78
2022/04/11 08:22:45;;;;;;;24.90;12.65;;;;;;;9.63;57.06;101718.91;5003758;28;20018;-78
2022/04/11 08:25:11;;;;;;;24.75;13.13;;;;;;;9.69;56.93;101721.75;5003029;28;20053;-79
2022/04/11 08:27:36;;;;;;;27.23;13.77;;;;;;;9.73;57.36;101723.66;5004420;28;20026;-72
2022/04/11 08:30:02;;;;;;;24.50;13.35;;;;;;;9.75;56.72;101717.69;5005349;28;20021;-72
2022/04/11 08:32:36;;;;;;;24.08;13.13;;;;;;;9.80;55.34;101717.00;5004856;28;20288;-72
2022/04/11 08:35:02;;;;;;;21.63;11.60;;;;;;;9.86;55.22;101718.16;5004431;28;20026;-72
2022/04/11 08:37:28;;;;;;;19.67;11.93;;;;;;;9.90;55.51;101709.63;5006144;28;20024;-72
2022/04/11 08:39:53;;;;;;;21.48;12.05;;;;;;;10.00;56.08;101710.00;5004191;28;20213;-72
2022/04/11 08:42:22;;;;;;;20.02;11.10;;;;;;;10.06;55.41;101713.72;5005864;28;20025;-72
2022/04/11 08:44:49;;;;;;;25.10;12.35;;;;;;;10.13;55.93;101704.44;5005084;28;20018;-72
2022/04/11 08:47:15;;;;;;;21.05;11.13;;;;;;;10.21;54.50;101715.16;5004964;28;20026;-72
2022/04/11 08:49:42;;;;;;;19.17;10.98;;;;;;;10.26;54.83;101714.50;5004244;28;20068;-72
2022/04/11 08:52:08;;;;;;;18.38;10.70;;;;;;;10.35;55.10;101705.31;5005833;28;20027;-72
2022/04/11 08:54:35;;;;;;;22.05;10.13;;;;;;;10.43;55.78;101704.78;5004053;28;20026;-72
2022/04/11 08:57:00;;;;;;;19.33;9.80;;;;;;;10.50;53.76;101712.81;5003200;28;20184;-72
2022/04/11 08:59:25;;;;;;;19.75;10.38;;;;;;;10.55;52.96;101701.75;5004584;28;20022;-72
2022/04/11 09:01:50;;;;;;;19.33;9.98;;;;;;;10.58;52.91;101709.66;5003490;28;20069;-72
2022/04/11 09:04:16;;;;;;;16.25;9.90;;;;;;;10.61;53.15;101714.13;5004806;28;20057;-72
2022/04/11 09:06:41;;;;;;;18.83;9.85;;;;;;;10.65;52.24;101712.53;5003276;28;20026;-72
2022/04/11 09:09:06;;;;;;;17.95;10.18;;;;;;;10.70;52.74;101718.78;5004983;28;20030;-72
2022/04/11 09:11:38;;;;;;;16.67;9.73;;;;;;;10.77;53.52;101715.56;5003440;28;20018;-72
2022/04/11 09:14:06;;;;;;;16.92;9.48;;;;;;;10.82;52.21;101719.25;5004667;28;20025;-72
2022/04/11 09:16:50;;;;;;;19.33;9.45;;;;;;;10.88;52.84;101705.56;5005399;28;20068;-73
2022/04/11 09:19:24;;;;;;;15.52;9.02;;;;;;;10.95;52.80;101703.22;5006103;28;20052;-72
2022/04/11 09:21:50;;;;;;;14.70;9.02;;;;;;;11.03;51.25;101703.47;5001829;28;20243;-73
2022/04/11 09:24:19;;;;;;;18.55;9.32;;;;;;;11.10;52.07;101696.78;4985592;28;20025;-72
2022/04/11 09:26:47;;;;;;;16.00;8.60;;;;;;;11.17;52.09;101697.88;4985515;28;20014;-72
2022/04/11 09:29:15;;;;;;;16.80;9.00;;;;;;;11.23;49.33;101679.81;5002162;28;20030;-73
2022/04/11 09:31:43;;;;;;;18.65;8.98;;;;;;;11.28;48.96;101673.94;5004941;28;20277;-72
2022/04/11 09:34:22;;;;;;;14.93;8.63;;;;;;;11.32;52.48;101661.88;5004307;28;20015;-73
2022/04/11 09:36:54;;;;;;;16.92;8.20;;;;;;;11.40;50.24;101670.84;5002217;28;20146;-82
2022/04/11 09:39:24;;;;;;;17.20;8.57;;;;;;;11.49;52.33;101670.25;5003373;28;20263;-81
2022/04/11 09:41:52;;;;;;;16.20;8.88;;;;;;;11.55;48.92;101660.00;5004210;28;20041;-81
2022/04/11 09:44:41;;;;;;;13.90;8.77;;;;;;;11.60;49.21;101663.69;5004274;28;20033;-81
2022/04/11 09:47:06;;;;;;;15.63;8.05;;;;;;;11.66;48.93;101663.88;5003421;28;20188;-80
2022/04/11 09:49:32;;;;;;;13.88;7.30;;;;;;;11.76;47.46;101658.94;5003101;28;20050;-81
2022/04/11 09:52:12;;;;;;;13.27;8.13;;;;;;;11.79;47.43;101659.06;5003055;28;20028;-81
2022/04/11 09:54:43;;;;;;;12.82;8.50;;;;;;;11.81;46.44;101649.53;5003034;28;20104;-81
2022/04/11 09:57:10;;;;;;;14.93;8.38;;;;;;;11.88;48.30;101648.88;5004619;28;20269;-80
2022/04/11 09:59:36;;;;;;;21.13;9.40;;;;;;;11.95;48.23;101644.78;5002831;28;20030;-81
2022/04/11 10:02:03;;;;;;;14.98;9.18;;;;;;;12.02;47.46;101640.63;5001194;28;20033;-81
2022/04/11 10:04:28;;;;;;;15.43;8.60;;;;;;;12.06;43.82;101627.69;5000075;28;20022;-81
2022/04/11 10:06:55;;;;;;;25.95;9.20;;;;;;;12.12;48.07;101634.81;5003457;28;20184;-86
2022/04/11 10:09:23;;;;;;;15.50;8.63;;;;;;;12.17;48.36;101641.97;5003386;28;20116;-86
2022/04/11 10:11:50;;;;;;;17.10;8.02;;;;;;;12.24;47.35;101642.13;5003467;28;20035;-87
2022/04/11 10:14:17;;;;;;;17.25;7.63;;;;;;;12.28;42.56;101636.16;5001250;28;21150;-87
2022/04/11 10:16:44;;;;;;;15.10;6.93;;;;;;;12.32;46.07;101638.03;5000271;28;20026;-86
2022/04/11 10:19:13;;;;;;;16.67;7.95;;;;;;;12.33;41.83;101637.19;4997855;28;20038;-87
2022/04/11 10:21:40;;;;;;;16.33;9.05;;;;;;;12.37;45.42;101636.44;5002431;28;20030;-86
2022/04/11 10:24:16;;;;;;;14.23;8.48;;;;;;;12.37;42.03;101635.53;4994119;28;20026;-87
2022/04/11 10:26:47;;;;;;;14.00;7.93;;;;;;;12.40;44.78;101626.09;4989201;28;20217;-86
2022/04/11 10:29:32;;;;;;;15.93;8.15;;;;;;;12.47;45.27;101619.28;5002599;28;20022;-86
2022/04/11 10:32:14;;;;;;;14.52;8.02;;;;;;;12.51;44.24;101629.00;4996428;28;20026;-86
2022/04/11 10:34:49;;;;;;;15.57;9.20;;;;;;;12.57;42.50;101618.72;4998325;28;20014;-87
2022/04/11 10:37:16;;;;;;;14.10;8.05;;;;;;;12.63;45.54;101625.81;5003135;28;20045;-87
2022/04/11 10:39:44;;;;;;;15.55;8.18;;;;;;;12.69;41.92;101626.03;5002869;28;20026;-86
2022/04/11 10:42:14;;;;;;;20.02;8.27;;;;;;;12.68;42.08;101619.88;5001761;28;20122;-87
2022/04/11 10:44:48;;;;;;;14.55;7.60;;;;;;;12.68;41.46;101613.78;5001261;28;20061;-87
2022/04/11 10:47:21;;;;;;;13.93;8.20;;;;;;;12.70;43.30;101607.75;5002554;28;20026;-88
2022/04/11 10:49:58;;;;;;;13.95;7.28;;;;;;;12.78;43.75;101605.34;5002320;28;20022;-87
2022/04/11 10:52:27;;;;;;;12.95;7.05;;;;;;;12.86;41.11;101609.06;5002655;28;20018;-87
2022/04/11 10:54:54;;;;;;;11.80;7.07;;;;;;;12.90;41.49;101599.53;5001971;28;20076;-86
2022/04/11 10:57:55;;;;;;;13.55;7.85;;;;;;;12.91;43.02;101589.97;5002535;28;20029;-87
2022/04/11 11:00:20;;;;;;;15.13;7.43;;;;;;;12.96;43.03;101591.88;5005735;28;20237;-87
2022/04/11 11:02:59;;;;;;;13.13;6.82;;;;;;;13.03;42.42;101587.66;5000908;28;20279;-86
2022/04/11 11:05:30;;;;;;;15.27;7.80;;;;;;;13.06;41.03;101585.13;5001836;28;20026;-87
2022/04/11 11:08:17;;;;;;;14.27;7.30;;;;;;;13.10;43.79;101579.13;5002656;28;20018;-87
2022/04/11 11:10:59;;;;;;;14.10;7.68;;;;;;;13.17;42.45;101573.19;5002120;28;20018;-86
2022/04/11 11:13:27;;;;;;;13.98;8.00;;;;;;;13.18;41.58;101567.13;5001693;28;20293;-87
2022/04/11 11:15:57;;;;;;;12.93;7.68;;;;;;;13.20;40.22;101564.53;5001621;28;20045;-87